Time;durP1;ratioP1;P1;durP2;ratioP2;P2;SDS_P1;SDS_P2;PMS_P1;PMS_P2;Temp;Humidity;BMP_temperature;BMP_pressure;BME280_temperature;BME280_humidity;BME280_pressure;Samples;Min_cycle;Max_cycle;Signal;HPM_P1;HPM_P2
2023/06/18 00:02:07;;;;;;;31.33;23.07;;;;;;;17.39;79.35;99839.94;4215534;28;20288;-73
2023/06/18 00:04:34;;;;;;;32.90;23.77;;;;;;;17.42;79.32;99845.00;4226228;28;20356;-71
2023/06/18 00:07:00;;;;;;;31.07;23.73;;;;;;;17.48;78.84;99835.97;4231296;28;22102;-75
2023/06/18 00:09:27;;;;;;;42.37;28.90;;;;;;;17.26;80.10;99844.31;4230529;28;25617;-75
2023/06/18 00:11:54;;;;;;;38.17;26.43;;;;;;;17.34;79.74;99842.44;4228292;28;21108;-74
2023/06/18 00:14:21;;;;;;;33.10;24.27;;;;;;;17.29;79.92;99847.72;4218273;28;20235;-74
2023/06/18 00:16:49;;;;;;;34.20;26.30;;;;;;;17.18;79.69;99844.50;4237876;28;21692;-75
2023/06/18 00:19:16;;;;;;;35.37;26.10;;;;;;;17.04;80.31;99840.03;4220963;28;21757;-73
2023/06/18 00:21:43;;;;;;;32.53;24.73;;;;;;;17.13;79.85;99835.22;4218379;28;20250;-70
2023/06/18 00:24:09;;;;;;;33.77;25.27;;;;;;;16.90;79.58;99812.63;4231474;28;23472;-73
2023/06/18 00:26:36;;;;;;;35.73;25.87;;;;;;;17.16;79.48;99843.88;4254567;28;20235;-77
2023/06/18 00:29:03;;;;;;;32.40;24.53;;;;;;;17.15;79.56;99833.97;4233634;28;20235;-79
2023/06/18 00:31:32;;;;;;;30.33;23.50;;;;;;;17.23;79.09;99844.72;4241080;28;20235;-76
2023/06/18 00:34:06;;;;;;;30.13;23.50;;;;;;;17.31;78.87;99840.13;4250534;28;20265;-73
2023/06/18 00:36:34;;;;;;;31.20;22.73;;;;;;;17.40;78.17;99839.75;4233445;28;21532;-77
2023/06/18 00:39:02;;;;;;;28.57;22.93;;;;;;;17.31;78.56;99837.38;4246349;28;20247;-77
2023/06/18 00:41:30;;;;;;;32.90;23.60;;;;;;;17.13;79.24;99849.75;4221169;28;20300;-75
2023/06/18 00:43:59;;;;;;;31.97;23.60;;;;;;;17.07;79.71;99842.38;4242253;28;21090;-76
2023/06/18 00:46:26;;;;;;;29.23;22.77;;;;;;;17.13;79.52;99851.63;4238530;28;20302;-73
2023/06/18 00:48:55;;;;;;;28.67;22.10;;;;;;;17.09;79.72;99857.53;4279659;28;22170;-73
2023/06/18 00:51:22;;;;;;;29.03;22.53;;;;;;;17.07;79.83;99850.59;4214866;28;21653;-73
2023/06/18 00:53:49;;;;;;;33.27;24.73;;;;;;;16.87;80.81;99851.28;4223859;28;21043;-73
2023/06/18 00:56:17;;;;;;;30.43;22.63;;;;;;;16.86;80.92;99857.81;4234800;28;20239;-71
2023/06/18 00:58:47;;;;;;;32.63;25.00;;;;;;;16.83;81.04;99860.97;4232579;28;21144;-77
2023/06/18 01:01:14;;;;;;;28.63;22.40;;;;;;;17.03;79.81;99852.03;4222881;28;20235;-75
2023/06/18 01:03:41;;;;;;;29.17;22.97;;;;;;;16.86;81.02;99859.72;4223870;28;20738;-71
2023/06/18 01:06:11;;;;;;;31.70;23.43;;;;;;;16.82;81.28;99858.41;4221056;28;23021;-76
2023/06/18 01:08:40;;;;;;;31.37;23.23;;;;;;;16.85;81.10;99860.75;4205502;28;20236;-72
2023/06/18 01:11:08;;;;;;;31.70;22.77;;;;;;;16.92;80.93;99856.16;4230947;28;21243;-72
2023/06/18 01:13:40;;;;;;;32.57;22.93;;;;;;;16.90;81.11;99852.78;4231713;28;21972;-73
2023/06/18 01:16:08;;;;;;;31.57;23.83;;;;;;;16.86;81.40;99849.59;4217699;28;22035;-76
2023/06/18 01:18:54;;;;;;;33.07;24.03;;;;;;;16.86;81.25;99848.78;4222988;28;20232;-74
2023/06/18 01:21:23;;;;;;;30.20;23.50;;;;;;;16.84;81.61;99848.13;4231098;28;20239;-72
2023/06/18 01:24:04;;;;;;;30.03;22.63;;;;;;;16.87;81.47;99850.47;4223847;28;22979;-72
2023/06/18 01:26:32;;;;;;;28.77;22.67;;;;;;;16.88;81.30;99841.22;4238223;28;20249;-72
2023/06/18 01:28:58;;;;;;;29.90;23.67;;;;;;;16.83;81.62;99852.75;4210727;28;20236;-76
2023/06/18 01:31:25;;;;;;;28.77;22.27;;;;;;;16.82;81.73;99848.34;4212462;28;20234;-72
2023/06/18 01:33:55;;;;;;;28.77;22.17;;;;;;;16.85;81.84;99850.66;4215111;28;20247;-72
2023/06/18 01:36:37;;;;;;;30.67;23.57;;;;;;;16.82;82.08;99847.47;4228451;28;20641;-72
2023/06/18 01:39:20;;;;;;;30.70;23.27;;;;;;;16.73;82.13;99841.34;4235040;28;23149;-72
2023/06/18 01:41:48;;;;;;;30.17;24.20;;;;;;;16.70;82.27;99849.94;4224277;28;20683;-74
2023/06/18 01:44:18;;;;;;;29.53;21.37;;;;;;;16.71;82.14;99843.44;4210403;28;20272;-72
2023/06/18 01:46:47;;;;;;;28.03;21.60;;;;;;;16.72;82.25;99843.25;4224116;28;20235;-72
2023/06/18 01:49:15;;;;;;;26.33;21.47;;;;;;;16.70;82.08;99856.25;4224566;28;21086;-74
2023/06/18 01:51:42;;;;;;;28.47;22.73;;;;;;;16.62;82.62;99848.22;4227379;28;20238;-74
2023/06/18 01:54:09;;;;;;;32.67;22.13;;;;;;;16.67;82.38;99856.66;4203652;28;20413;-72
2023/06/18 01:56:36;;;;;;;27.50;21.73;;;;;;;16.58;82.95;99853.25;4225965;28;21410;-75
2023/06/18 01:59:03;;;;;;;29.50;23.33;;;;;;;16.52;83.54;99856.78;4228538;28;21431;-70
2023/06/18 02:01:31;;;;;;;32.70;23.73;;;;;;;16.36;84.32;99852.47;4227427;28;20378;-71
2023/06/18 02:03:58;;;;;;;31.40;24.00;;;;;;;16.42;84.42;99856.31;4225988;28;20350;-75
2023/06/18 02:06:25;;;;;;;32.60;23.33;;;;;;;16.40;84.22;99858.38;4228349;28;20235;-74
2023/06/18 02:08:51;;;;;;;30.60;24.23;;;;;;;16.38;84.53;99864.06;4215213;28;20239;-71
2023/06/18 02:11:18;;;;;;;29.03;21.23;;;;;;;16.54;83.46;99862.06;4223108;28;21271;-73
2023/06/18 02:13:46;;;;;;;28.00;21.53;;;;;;;16.51;83.55;99857.84;4224696;28;20273;-74
2023/06/18 02:16:12;;;;;;;27.63;21.67;;;;;;;16.54;83.59;99862.88;4218725;28;20388;-73
2023/06/18 02:18:40;;;;;;;29.63;22.67;;;;;;;16.48;83.38;99860.97;4215607;28;20231;-72
2023/06/18 02:21:07;;;;;;;29.50;21.60;;;;;;;16.48;83.72;99856.34;4215207;28;20258;-75
2023/06/18 02:23:34;;;;;;;25.63;20.40;;;;;;;16.53;83.49;99857.63;4225063;28;21611;-74
2023/06/18 02:26:01;;;;;;;30.50;21.57;;;;;;;16.57;83.71;99854.28;4233754;28;20301;-76
2023/06/18 02:28:28;;;;;;;30.27;21.20;;;;;;;16.58;83.35;99856.00;4224914;28;20236;-75
2023/06/18 02:30:55;;;;;;;28.07;21.40;;;;;;;16.41;84.05;99846.41;4229162;28;20530;-71
2023/06/18 02:33:23;;;;;;;29.03;22.27;;;;;;;16.59;83.92;99871.34;4223607;28;20300;-72
2023/06/18 02:35:50;;;;;;;31.97;22.00;;;;;;;16.63;83.81;99875.34;4229459;28;20238;-73
2023/06/18 02:38:16;;;;;;;31.57;22.77;;;;;;;16.63;83.94;99878.06;4239145;28;21215;-75
2023/06/18 02:40:43;;;;;;;29.37;21.97;;;;;;;16.76;83.57;99880.06;4227056;28;20331;-76
2023/06/18 02:43:09;;;;;;;31.33;21.87;;;;;;;16.86;83.14;99878.84;4224302;28;20239;-74
2023/06/18 02:45:36;;;;;;;29.83;20.73;;;;;;;16.88;82.92;99888.53;4228368;28;21573;-72
2023/06/18 02:48:02;;;;;;;28.90;20.83;;;;;;;16.79;83.06;99882.41;4226108;28;20232;-71
2023/06/18 02:50:29;;;;;;;29.13;20.20;;;;;;;16.73;83.11;99885.91;4244046;28;20240;-73
2023/06/18 02:52:56;;;;;;;26.07;20.13;;;;;;;16.67;83.22;99870.31;4234595;28;20260;-77
2023/06/18 02:55:23;;;;;;;26.37;19.93;;;;;;;16.59;83.73;99881.41;4231761;28;20234;-71
2023/06/18 02:57:50;;;;;;;26.60;20.80;;;;;;;16.56;83.83;99890.03;4225046;28;21152;-74
2023/06/18 03:00:21;;;;;;;24.17;18.77;;;;;;;16.60;83.85;99881.22;4241957;28;20459;-73
2023/06/18 03:02:48;;;;;;;25.17;20.80;;;;;;;16.62;83.80;99881.03;4244148;28;20239;-73
2023/06/18 03:05:14;;;;;;;26.43;19.80;;;;;;;16.63;83.54;99877.25;4238662;28;20242;-72
2023/06/18 03:07:41;;;;;;;27.37;21.80;;;;;;;16.46;84.18;99884.94;4243908;28;20246;-72
2023/06/18 03:10:09;;;;;;;26.10;20.03;;;;;;;16.50;84.19;99878.00;4257641;28;20239;-73
2023/06/18 03:12:36;;;;;;;24.63;18.90;;;;;;;16.58;84.21;99874.25;4259939;28;20237;-76
2023/06/18 03:15:05;;;;;;;26.07;20.47;;;;;;;16.70;83.46;99875.41;4251107;28;20237;-73
2023/06/18 03:17:32;;;;;;;26.90;19.63;;;;;;;16.80;83.41;99881.31;4233328;28;20236;-77
2023/06/18 03:19:59;;;;;;;26.27;19.77;;;;;;;16.87;83.00;99881.38;4253704;28;20349;-72
2023/06/18 03:22:26;;;;;;;25.80;19.97;;;;;;;16.92;82.58;99878.88;4253881;28;22202;-79
2023/06/18 03:24:53;;;;;;;28.50;21.47;;;;;;;16.78;83.09;99886.16;4292605;28;20232;-72
2023/06/18 03:27:19;;;;;;;28.70;19.93;;;;;;;16.84;83.19;99891.88;4253529;28;20238;-73
2023/06/18 03:29:46;;;;;;;26.43;19.37;;;;;;;16.94;82.65;99886.91;4244969;28;20306;-75
2023/06/18 03:32:14;;;;;;;28.73;21.30;;;;;;;16.94;82.67;99895.13;4289960;28;20798;-77
2023/06/18 03:34:42;;;;;;;29.10;19.47;;;;;;;16.97;82.83;99893.84;4254671;28;20243;-76
2023/06/18 03:37:09;;;;;;;25.17;18.80;;;;;;;17.06;82.64;99892.66;4274355;28;20239;-75
2023/06/18 03:39:35;;;;;;;30.40;19.97;;;;;;;17.13;82.25;99903.59;4271103;28;20241;-72
2023/06/18 03:42:02;;;;;;;26.37;19.67;;;;;;;17.14;82.21;99889.75;4263396;28;20235;-75
2023/06/18 03:44:29;;;;;;;28.17;20.43;;;;;;;17.33;81.35;99903.69;4277463;28;20280;-72
2023/06/18 03:46:56;;;;;;;27.53;20.13;;;;;;;17.43;80.63;99912.34;4247200;28;22297;-71
2023/06/18 03:49:24;;;;;;;26.83;20.20;;;;;;;17.34;80.53;99914.41;4236724;28;20891;-72
2023/06/18 03:51:51;;;;;;;30.53;22.53;;;;;;;17.21;81.26;99917.97;4251549;28;20245;-73
2023/06/18 03:54:18;;;;;;;32.37;23.13;;;;;;;16.92;82.89;99908.09;4221243;28;20287;-77
2023/06/18 03:56:44;;;;;;;29.40;22.50;;;;;;;16.95;83.11;99916.78;4232215;28;20266;-77
2023/06/18 03:59:11;;;;;;;31.63;21.93;;;;;;;17.26;81.84;99922.78;4236269;28;20243;-73
2023/06/18 04:01:38;;;;;;;30.03;22.03;;;;;;;17.13;82.10;99918.13;4251329;28;21801;-74
2023/06/18 04:04:04;;;;;;;30.47;23.60;;;;;;;17.00;82.92;99921.63;4267542;28;21602;-73
2023/06/18 04:06:31;;;;;;;37.23;25.77;;;;;;;16.86;83.12;99917.94;4236932;28;20238;-74
2023/06/18 04:08:58;;;;;;;33.10;24.20;;;;;;;17.03;82.44;99914.91;4248536;28;20319;-78
2023/06/18 04:11:27;;;;;;;34.30;24.40;;;;;;;17.16;81.48;99914.16;4237158;28;21521;-81
2023/06/18 04:13:53;;;;;;;37.83;25.23;;;;;;;17.00;82.39;99916.16;4198424;28;20787;-73
2023/06/18 04:16:20;;;;;;;31.60;23.43;;;;;;;17.18;81.81;99918.34;4279526;28;20220;-82
2023/06/18 04:18:47;;;;;;;32.50;23.70;;;;;;;17.21;81.20;99915.22;4209562;28;20603;-73
2023/06/18 04:21:13;;;;;;;36.17;25.70;;;;;;;16.95;82.67;99916.78;4227910;28;20335;-77
2023/06/18 04:23:42;;;;;;;42.20;26.03;;;;;;;16.97;82.89;99916.56;4247929;28;20330;-73
2023/06/18 04:26:08;;;;;;;33.33;25.40;;;;;;;17.07;82.42;99913.47;4232695;28;23206;-75
2023/06/18 04:28:35;;;;;;;36.67;24.87;;;;;;;17.20;81.33;99921.75;4221515;28;20285;-65
2023/06/18 04:31:02;;;;;;;31.63;23.80;;;;;;;17.17;81.94;99916.66;4227067;28;20239;-66
2023/06/18 04:33:28;;;;;;;35.97;24.37;;;;;;;17.17;81.67;99921.31;4235512;28;20234;-68
2023/06/18 04:35:55;;;;;;;35.60;24.77;;;;;;;17.14;82.23;99932.63;4213990;28;20286;-66
2023/06/18 04:38:22;;;;;;;37.53;26.33;;;;;;;17.02;82.85;99925.03;4232380;28;25469;-65
2023/06/18 04:40:49;;;;;;;33.03;24.80;;;;;;;17.02;82.98;99944.16;4229204;28;20277;-65
2023/06/18 04:43:17;;;;;;;39.43;28.10;;;;;;;16.94;83.16;99941.59;4252530;28;20294;-66
2023/06/18 04:45:46;;;;;;;32.53;24.87;;;;;;;16.83;83.22;99942.09;4223623;28;21731;-67
2023/06/18 04:48:14;;;;;;;32.93;23.00;;;;;;;17.02;82.28;99944.16;4239384;28;25177;-68
2023/06/18 04:50:41;;;;;;;36.40;23.87;;;;;;;17.05;82.34;99938.28;4236896;28;20300;-64
2023/06/18 04:53:07;;;;;;;35.20;24.63;;;;;;;17.20;82.07;99940.88;4235405;28;20239;-66
2023/06/18 04:55:34;;;;;;;35.30;24.10;;;;;;;17.09;81.95;99941.44;4231073;28;21407;-65
2023/06/18 04:58:00;;;;;;;41.53;25.73;;;;;;;17.00;82.32;99948.97;4230701;28;20318;-68
2023/06/18 05:00:27;;;;;;;35.23;26.13;;;;;;;16.94;82.61;99952.53;4221582;28;20234;-66
2023/06/18 05:02:54;;;;;;;41.43;26.67;;;;;;;16.74;83.61;99953.19;4209060;28;23675;-63
2023/06/18 05:05:20;;;;;;;33.93;25.00;;;;;;;16.75;83.60;99948.59;4238900;28;20235;-66
2023/06/18 05:07:47;;;;;;;37.60;26.17;;;;;;;16.82;83.46;99940.41;4231635;28;20483;-63
2023/06/18 05:10:14;;;;;;;38.17;26.23;;;;;;;16.80;83.23;99946.94;4273778;28;25244;-49
2023/06/18 05:12:40;;;;;;;35.17;25.83;;;;;;;16.93;82.45;99943.47;4204689;28;20594;-46
2023/06/18 05:15:07;;;;;;;36.13;25.30;;;;;;;17.02;82.50;99938.69;4237882;28;22094;-66
2023/06/18 05:17:35;;;;;;;35.53;24.57;;;;;;;17.29;81.41;99946.19;4223688;28;21179;-64
2023/06/18 05:20:04;;;;;;;30.23;22.33;;;;;;;17.53;80.81;99948.38;4232835;28;20240;-65
2023/06/18 05:22:31;;;;;;;29.60;22.33;;;;;;;17.97;79.56;99948.09;4239546;28;21110;-64
2023/06/18 05:25:01;;;;;;;31.43;21.77;;;;;;;18.31;78.16;99949.81;4233363;28;20440;-66
2023/06/18 05:27:28;;;;;;;29.77;21.70;;;;;;;18.60;75.96;99946.84;4221751;28;20578;-63
2023/06/18 05:29:55;;;;;;;28.27;20.80;;;;;;;18.76;75.47;99953.78;4227777;28;20235;-64
2023/06/18 05:32:21;;;;;;;33.90;22.70;;;;;;;18.09;77.06;99962.84;4232562;28;20258;-64
2023/06/18 05:34:48;;;;;;;32.30;21.63;;;;;;;18.26;77.51;99959.72;4226762;28;20595;-45
2023/06/18 05:37:15;;;;;;;34.13;21.57;;;;;;;18.33;77.52;99964.13;4220263;28;20231;-49
2023/06/18 05:39:42;;;;;;;26.37;19.57;;;;;;;18.72;76.22;99955.25;4224756;28;20512;-46
2023/06/18 05:42:08;;;;;;;29.70;21.40;;;;;;;18.50;76.05;99964.59;4215486;28;20261;-64
2023/06/18 05:44:35;;;;;;;33.50;22.27;;;;;;;18.40;76.18;99966.03;4224863;28;21684;-64
2023/06/18 05:47:02;;;;;;;29.10;19.90;;;;;;;18.75;75.88;99966.66;4245151;28;23639;-66
2023/06/18 05:49:28;;;;;;;27.23;19.97;;;;;;;18.72;75.57;99968.97;4203213;28;20259;-65
2023/06/18 05:51:55;;;;;;;27.80;21.10;;;;;;;18.53;75.76;99977.84;4221090;28;21969;-65
2023/06/18 05:54:22;;;;;;;28.03;18.10;;;;;;;19.09;74.49;99970.22;4203399;28;20236;-64
2023/06/18 05:56:48;;;;;;;27.77;20.43;;;;;;;19.04;74.19;99971.91;4228405;28;21039;-65
2023/06/18 05:59:15;;;;;;;25.23;18.30;;;;;;;19.26;74.21;99978.81;4228856;28;20875;-65
2023/06/18 06:01:42;;;;;;;30.20;20.13;;;;;;;18.83;74.41;99969.16;4222956;28;20228;-64
2023/06/18 06:04:09;;;;;;;28.13;20.40;;;;;;;18.81;75.02;99968.53;4244014;28;20653;-69
2023/06/18 06:06:36;;;;;;;27.70;20.53;;;;;;;19.00;74.21;99968.75;4221668;28;20279;-65
2023/06/18 06:09:03;;;;;;;24.50;18.33;;;;;;;18.94;75.37;99970.44;4228557;28;20239;-64
2023/06/18 06:11:29;;;;;;;27.50;19.83;;;;;;;19.07;73.95;99972.31;4238294;28;20235;-65
2023/06/18 06:13:58;;;;;;;24.97;18.60;;;;;;;19.12;73.97;99978.00;4229731;28;20235;-65
2023/06/18 06:16:25;;;;;;;24.20;18.70;;;;;;;19.67;72.57;99986.91;4227953;28;22008;-66
2023/06/18 06:18:51;;;;;;;29.77;17.37;;;;;;;19.98;71.60;99990.78;4228692;28;20425;-66
2023/06/18 06:21:18;;;;;;;26.93;18.70;;;;;;;19.92;71.41;99993.31;4228585;28;20234;-68
2023/06/18 06:23:45;;;;;;;27.23;19.53;;;;;;;19.73;71.80;99997.84;4229116;28;25331;-65
2023/06/18 06:26:11;;;;;;;24.83;16.90;;;;;;;19.89;71.59;99993.78;4225188;28;20333;-65
2023/06/18 06:28:38;;;;;;;25.97;18.97;;;;;;;19.59;72.39;99998.97;4212509;28;21670;-69
2023/06/18 06:31:05;;;;;;;25.30;18.70;;;;;;;19.78;72.39;100003.53;4228918;28;21863;-70
2023/06/18 06:33:31;;;;;;;30.37;18.50;;;;;;;20.11;70.30;100008.00;4249016;28;20626;-66
2023/06/18 06:35:58;;;;;;;26.83;19.40;;;;;;;19.98;71.06;100002.59;4223949;28;23570;-73
2023/06/18 06:38:25;;;;;;;29.10;18.30;;;;;;;19.91;71.43;99994.38;4248394;28;20230;-73
2023/06/18 06:40:51;;;;;;;25.37;18.83;;;;;;;19.67;72.88;99995.13;4234148;28;20978;-73
2023/06/18 06:43:18;;;;;;;29.80;19.73;;;;;;;19.59;73.52;99990.72;4210710;28;20274;-76
2023/06/18 06:45:45;;;;;;;26.43;20.37;;;;;;;19.74;73.27;99993.19;4249852;28;20599;-71
2023/06/18 06:48:12;;;;;;;30.13;19.20;;;;;;;20.24;71.09;99998.00;4224986;28;20334;-70
2023/06/18 06:50:38;;;;;;;25.20;17.80;;;;;;;20.71;69.36;100008.63;4235065;28;20733;-69
2023/06/18 06:53:05;;;;;;;26.07;17.83;;;;;;;20.39;70.09;100008.66;4231444;28;20301;-72
2023/06/18 06:55:32;;;;;;;26.97;19.50;;;;;;;20.47;70.17;100004.81;4265576;28;25678;-72
2023/06/18 06:57:59;;;;;;;23.83;17.37;;;;;;;20.61;70.51;100005.53;4236006;28;20236;-74
2023/06/18 07:00:25;;;;;;;25.43;18.50;;;;;;;20.88;69.40;99998.75;4246595;28;20247;-72
2023/06/18 07:02:52;;;;;;;25.10;17.97;;;;;;;20.33;70.38;99996.66;4228745;28;20328;-71
2023/06/18 07:05:19;;;;;;;24.00;18.17;;;;;;;20.32;70.50;100000.47;4239827;28;20231;-75
2023/06/18 07:07:46;;;;;;;26.40;18.33;;;;;;;20.79;69.41;100010.28;4250395;28;22744;-72
2023/06/18 07:10:13;;;;;;;23.90;15.20;;;;;;;21.80;67.06;100004.53;4247537;28;21631;-73
2023/06/18 07:12:39;;;;;;;22.10;16.60;;;;;;;22.14;63.92;100005.75;4308583;28;20241;-75
2023/06/18 07:15:06;;;;;;;20.83;15.07;;;;;;;22.36;63.87;100005.19;4262051;28;20305;-72
2023/06/18 07:17:33;;;;;;;23.40;16.67;;;;;;;21.33;66.82;99994.06;4248157;28;20245;-72
2023/06/18 07:20:00;;;;;;;21.17;14.70;;;;;;;21.90;65.90;100003.97;4247886;28;24979;-73
2023/06/18 07:22:27;;;;;;;19.80;14.97;;;;;;;21.92;64.35;99994.38;4196564;28;20255;-71
2023/06/18 07:24:56;;;;;;;20.57;15.17;;;;;;;22.08;64.25;100006.69;4215797;28;21251;-72
2023/06/18 07:27:24;;;;;;;22.03;14.87;;;;;;;22.15;64.54;100015.72;4239514;28;20363;-73
2023/06/18 07:29:51;;;;;;;17.97;12.90;;;;;;;22.57;63.12;100014.03;4214572;28;21794;-72
2023/06/18 07:32:18;;;;;;;24.37;15.23;;;;;;;22.58;61.56;100019.28;4234437;28;20919;-70
2023/06/18 07:34:44;;;;;;;22.03;14.57;;;;;;;22.89;60.75;100021.97;4210506;28;20240;-70
2023/06/18 07:37:11;;;;;;;25.13;16.80;;;;;;;22.59;62.63;100018.22;4230873;28;20257;-71
2023/06/18 07:39:38;;;;;;;29.40;17.33;;;;;;;22.34;63.27;100012.88;4230589;28;20369;-71
2023/06/18 07:42:05;;;;;;;25.30;15.60;;;;;;;23.19;60.38;100018.28;4228500;28;21649;-70
2023/06/18 07:44:31;;;;;;;29.20;15.77;;;;;;;22.76;60.46;100012.88;4272122;28;20320;-72
2023/06/18 07:46:59;;;;;;;26.17;16.80;;;;;;;22.66;60.79;100012.59;4280217;28;20231;-72
2023/06/18 07:49:26;;;;;;;33.33;17.37;;;;;;;22.89;60.34;100010.94;4224287;28;20232;-73
2023/06/18 07:51:54;;;;;;;28.83;17.83;;;;;;;23.24;59.99;100002.69;4279857;28;20226;-72
2023/06/18 07:54:21;;;;;;;31.47;18.23;;;;;;;23.80;58.23;100015.16;4248580;28;21737;-72
2023/06/18 07:56:48;;;;;;;26.07;15.73;;;;;;;23.81;57.20;100011.31;4248321;28;20238;-73
2023/06/18 07:59:16;;;;;;;24.47;15.10;;;;;;;23.95;57.09;100015.47;4218199;28;20619;-73
2023/06/18 08:01:42;;;;;;;26.07;15.17;;;;;;;23.65;57.58;100023.94;4244825;28;25381;-73
2023/06/18 08:04:09;;;;;;;24.63;15.60;;;;;;;23.60;58.41;100019.19;4253497;28;20238;-75
2023/06/18 08:06:36;;;;;;;29.83;16.50;;;;;;;24.21;57.46;100018.72;4234885;28;20373;-73
2023/06/18 08:09:02;;;;;;;27.17;14.60;;;;;;;24.45;56.27;100024.13;4226806;28;20239;-70
2023/06/18 08:11:29;;;;;;;23.33;15.00;;;;;;;24.86;55.48;100027.63;4283330;28;20402;-71
2023/06/18 08:13:56;;;;;;;20.63;12.70;;;;;;;25.16;53.56;100035.53;4229326;28;26498;-72
2023/06/18 08:16:25;;;;;;;19.93;13.03;;;;;;;24.73;55.10;100039.03;4194075;28;22075;-71
2023/06/18 08:18:52;;;;;;;15.80;11.23;;;;;;;25.02;53.80;100034.22;4226031;28;21825;-72
2023/06/18 08:21:19;;;;;;;13.80;10.13;;;;;;;24.97;52.97;100034.16;4245002;28;20250;-70
2023/06/18 08:23:46;;;;;;;15.23;10.90;;;;;;;24.88;52.56;100038.44;4224623;28;20276;-71
2023/06/18 08:26:14;;;;;;;14.60;10.27;;;;;;;25.03;52.67;100032.31;4240953;28;20243;-67
2023/06/18 08:28:41;;;;;;;14.90;10.50;;;;;;;23.76;55.32;100033.28;4208343;28;20613;-68
2023/06/18 08:31:07;;;;;;;12.77;9.50;;;;;;;24.21;54.85;100027.88;4223988;28;21362;-68
2023/06/18 08:33:34;;;;;;;14.30;10.40;;;;;;;24.21;55.05;100030.63;4238781;28;20308;-69
2023/06/18 08:36:01;;;;;;;13.53;10.00;;;;;;;24.18;54.58;100022.81;4249160;28;22691;-70
2023/06/18 08:38:27;;;;;;;10.80;8.97;;;;;;;24.32;53.33;100034.44;4238674;28;20849;-70
2023/06/18 08:41:02;;;;;;;12.63;9.00;;;;;;;24.41;53.07;100032.06;4238654;28;20467;-70
2023/06/18 08:43:32;;;;;;;10.90;8.00;;;;;;;24.75;52.75;100034.06;4237543;28;21620;-70
2023/06/18 08:46:15;;;;;;;10.63;8.57;;;;;;;24.30;53.17;100024.69;4228303;28;20629;-69
2023/06/18 08:49:08;;;;;;;12.10;9.10;;;;;;;24.13;53.90;100016.38;4226482;28;20233;-69
2023/06/18 08:51:37;;;;;;;14.43;9.97;;;;;;;24.23;54.01;100019.31;4232190;28;20239;-71
2023/06/18 08:54:17;;;;;;;11.80;8.13;;;;;;;24.26;53.22;100018.84;4257984;28;21131;-69
2023/06/18 08:56:50;;;;;;;11.73;8.47;;;;;;;24.27;53.56;100014.97;4232542;28;23137;-67
2023/06/18 08:59:18;;;;;;;9.83;8.20;;;;;;;24.00;54.00;100011.97;4255359;28;20234;-69
2023/06/18 09:01:45;;;;;;;13.67;8.57;;;;;;;23.65;54.59;100018.44;4245574;28;22992;-69
2023/06/18 09:04:14;;;;;;;10.53;7.23;;;;;;;23.81;54.08;100027.88;4220368;28;20768;-70
2023/06/18 09:06:42;;;;;;;10.93;8.53;;;;;;;23.80;54.44;100032.56;4229748;28;20293;-71
2023/06/18 09:09:08;;;;;;;11.47;7.97;;;;;;;23.68;55.60;100023.47;4222896;28;20550;-70
2023/06/18 09:11:35;;;;;;;11.43;8.73;;;;;;;23.60;55.31;100021.94;4237683;28;20235;-74
2023/06/18 09:14:04;;;;;;;14.20;8.23;;;;;;;23.42;54.88;100015.50;4232084;28;20234;-69
2023/06/18 09:16:31;;;;;;;11.50;7.93;;;;;;;23.31;56.26;100013.56;4213208;28;20601;-68
2023/06/18 09:18:59;;;;;;;9.33;7.97;;;;;;;23.17;55.33;100015.78;4220229;28;20294;-67
2023/06/18 09:21:38;;;;;;;12.20;7.93;;;;;;;23.02;56.65;100012.63;4224487;28;20362;-71
2023/06/18 09:24:18;;;;;;;11.03;7.73;;;;;;;23.25;56.07;100015.41;4225997;28;22347;-68
2023/06/18 09:26:46;;;;;;;10.33;7.20;;;;;;;23.40;54.75;100019.59;4220005;28;21790;-70
2023/06/18 09:29:13;;;;;;;8.10;7.20;;;;;;;23.15;55.52;100026.19;4230845;28;20231;-73
2023/06/18 09:31:44;;;;;;;10.73;8.20;;;;;;;22.87;56.38;100027.75;4218260;28;22402;-70
2023/06/18 09:34:13;;;;;;;13.90;8.57;;;;;;;22.51;59.00;100023.25;4229677;28;22809;-73
2023/06/18 09:36:43;;;;;;;14.73;9.40;;;;;;;22.05;62.16;100022.84;4231065;28;20227;-77
2023/06/18 09:39:21;;;;;;;13.27;9.90;;;;;;;21.91;63.12;100024.94;4212863;28;20254;-68
2023/06/18 09:41:49;;;;;;;17.57;10.80;;;;;;;21.36;65.36;100022.00;4229472;28;20246;-71
2023/06/18 09:44:17;;;;;;;12.83;10.27;;;;;;;21.20;66.35;100023.41;4238162;28;20243;-71
2023/06/18 09:46:48;;;;;;;14.80;11.70;;;;;;;21.08;67.48;100021.63;4221293;28;20306;-69
2023/06/18 09:49:20;;;;;;;20.30;11.47;;;;;;;21.10;67.79;100033.25;4230783;28;21075;-68
2023/06/18 09:51:49;;;;;;;15.37;11.40;;;;;;;20.94;68.96;100026.44;4216041;28;20247;-69
2023/06/18 09:54:15;;;;;;;16.27;10.73;;;;;;;20.84;67.14;100027.78;4220646;28;20240;-71
2023/06/18 09:57:15;;;;;;;18.57;10.90;;;;;;;20.06;69.90;100028.97;4211392;28;23235;-70
2023/06/18 09:59:42;;;;;;;14.77;10.27;;;;;;;19.65;71.33;100025.53;4204849;28;25061;-69
2023/06/18 10:02:13;;;;;;;16.00;10.83;;;;;;;19.58;71.72;100022.84;4249856;28;20245;-68
2023/06/18 10:04:40;;;;;;;14.43;10.53;;;;;;;19.55;70.92;100017.75;4218243;28;20283;-70
2023/06/18 10:07:15;;;;;;;12.83;9.47;;;;;;;19.44;70.54;100024.78;4236157;28;21136;-66
2023/06/18 10:09:46;;;;;;;14.53;9.73;;;;;;;19.36;71.59;100021.44;4235115;28;20237;-67
2023/06/18 10:12:14;;;;;;;14.80;10.53;;;;;;;19.35;72.32;100026.06;4220021;28;20794;-67
2023/06/18 10:14:40;;;;;;;13.27;10.53;;;;;;;19.19;73.73;100019.16;4209167;28;20230;-74
2023/06/18 10:17:28;;;;;;;15.30;11.50;;;;;;;19.20;74.03;100023.59;4233207;28;20518;-69
2023/06/18 10:20:03;;;;;;;16.03;11.10;;;;;;;19.40;73.89;100014.44;4232659;28;20235;-68
2023/06/18 10:22:37;;;;;;;14.43;10.83;;;;;;;19.44;73.45;100011.06;4219529;28;20243;-76
2023/06/18 10:25:05;;;;;;;14.93;10.60;;;;;;;19.51;73.27;100005.53;4233149;28;21516;-72
2023/06/18 10:27:34;;;;;;;12.83;9.50;;;;;;;19.63;71.41;100003.78;4228387;28;20223;-72
2023/06/18 10:30:01;;;;;;;16.70;9.80;;;;;;;19.73;71.42;100002.50;4230534;28;23650;-72
2023/06/18 10:32:30;;;;;;;14.90;10.00;;;;;;;19.90;72.63;100003.69;4216484;28;20256;-70
2023/06/18 10:35:00;;;;;;;17.60;11.07;;;;;;;20.00;72.49;100013.34;4223992;28;20251;-70
2023/06/18 10:37:27;;;;;;;17.23;11.17;;;;;;;19.93;72.55;99999.69;4230386;28;20327;-73
2023/06/18 10:39:54;;;;;;;11.07;9.13;;;;;;;19.90;69.67;100002.84;4225485;28;20234;-72
2023/06/18 10:42:20;;;;;;;11.90;8.27;;;;;;;20.02;69.63;100014.81;4244574;28;20812;-69
2023/06/18 10:44:47;;;;;;;17.83;9.57;;;;;;;20.05;70.79;100021.81;4236795;28;20231;-70
2023/06/18 10:47:19;;;;;;;13.63;8.93;;;;;;;20.22;69.31;100016.63;4241842;28;20416;-72
2023/06/18 10:50:06;;;;;;;12.50;8.97;;;;;;;20.47;67.32;100027.66;4242356;28;25778;-72
2023/06/18 10:52:37;;;;;;;10.50;7.77;;;;;;;20.33;67.37;100031.56;4233971;28;25699;-70
2023/06/18 10:55:08;;;;;;;12.67;8.17;;;;;;;20.32;67.32;100027.94;4241492;28;21130;-74
2023/06/18 10:57:39;;;;;;;14.63;8.60;;;;;;;20.37;68.09;100035.53;4234995;28;20239;-77
2023/06/18 11:00:19;;;;;;;11.17;8.17;;;;;;;20.30;67.03;100030.09;4229103;28;20264;-75
2023/06/18 11:02:46;;;;;;;13.40;8.80;;;;;;;20.25;66.39;100030.75;4234848;28;20242;-72
2023/06/18 11:05:45;;;;;;;11.63;8.60;;;;;;;20.13;67.23;100034.44;4220656;28;20905;-73
2023/06/18 11:08:13;;;;;;;10.70;8.80;;;;;;;20.08;67.74;100037.84;4235172;28;20670;-73
2023/06/18 11:10:47;;;;;;;11.93;9.13;;;;;;;19.70;69.50;100041.38;4227314;28;20228;-70
2023/06/18 11:13:15;;;;;;;14.60;10.60;;;;;;;19.86;70.25;100037.31;4220019;28;20247;-69
2023/06/18 11:17:48;;;;;;;12.20;9.63;;;;;;;19.95;69.87;100038.75;4271176;27;20543;-50
2023/06/18 11:20:17;;;;;;;15.93;11.40;;;;;;;19.78;72.55;100044.72;4239720;28;20289;-46
2023/06/18 11:22:44;;;;;;;17.93;12.77;;;;;;;19.69;72.91;100047.91;4250691;28;20231;-47